createdAt,value
2022-10-22T00:01:20.739Z,9.97
2022-10-22T00:03:49.162Z,10.47
2022-10-22T00:06:18.158Z,11.80
2022-10-22T00:08:47.969Z,12.67
2022-10-22T00:11:18.603Z,11.77
2022-10-22T00:13:48.399Z,6.60
2022-10-22T00:16:16.872Z,14.73
2022-10-22T00:18:45.272Z,9.73
2022-10-22T00:21:13.875Z,7.00
2022-10-22T00:23:43.174Z,9.47
2022-10-22T00:26:13.272Z,8.87
2022-10-22T00:28:41.697Z,7.27
2022-10-22T00:31:10.558Z,7.60
2022-10-22T00:33:39.011Z,9.43
2022-10-22T00:36:08.111Z,14.73
2022-10-22T00:38:36.980Z,9.77
2022-10-22T00:41:05.421Z,13.50
2022-10-22T00:43:35.749Z,9.10
2022-10-22T00:46:04.147Z,9.33
2022-10-22T00:48:34.346Z,8.23
2022-10-22T00:51:06.955Z,12.63
2022-10-22T00:53:40.542Z,7.57
2022-10-22T00:56:10.151Z,15.30
2022-10-22T00:58:47.940Z,12.90
2022-10-22T01:01:21.473Z,8.77
2022-10-22T01:03:50.499Z,10.43
2022-10-22T01:06:25.099Z,6.50
2022-10-22T01:09:03.861Z,10.00
2022-10-22T01:11:40.952Z,10.87
2022-10-22T01:14:18.678Z,8.67
2022-10-22T01:16:53.745Z,13.77
2022-10-22T01:19:37.118Z,11.50
2022-10-22T01:22:12.752Z,7.23
2022-10-22T01:24:52.379Z,10.07
2022-10-22T01:27:30.211Z,7.50
2022-10-22T01:30:04.136Z,6.23
2022-10-22T01:32:36.958Z,7.40
2022-10-22T01:35:08.964Z,14.53
2022-10-22T01:37:49.620Z,7.63
2022-10-22T01:40:19.772Z,10.93
2022-10-22T01:42:57.451Z,12.27
2022-10-22T01:45:27.459Z,8.03
2022-10-22T01:48:04.839Z,11.33
2022-10-22T01:51:08.052Z,8.03
2022-10-22T01:56:28.507Z,7.93
2022-10-22T01:59:06.927Z,5.70
2022-10-22T02:01:43.387Z,7.93
2022-10-22T02:04:18.463Z,8.40
2022-10-22T02:06:48.792Z,16.23
2022-10-22T02:09:19.562Z,11.80
2022-10-22T02:11:50.014Z,12.67
2022-10-22T02:14:19.928Z,12.20
2022-10-22T02:16:51.656Z,6.63
2022-10-22T02:19:25.653Z,10.40
2022-10-22T02:21:54.724Z,18.07
2022-10-22T02:24:23.949Z,6.57
2022-10-22T02:26:59.812Z,10.47
2022-10-22T02:29:32.144Z,10.83
2022-10-22T02:32:04.015Z,6.70
2022-10-22T02:34:33.416Z,9.83
2022-10-22T02:37:03.526Z,10.03
2022-10-22T02:39:33.353Z,10.53
2022-10-22T02:42:02.772Z,10.40
2022-10-22T02:44:31.345Z,9.43
2022-10-22T02:47:01.469Z,8.57
2022-10-22T02:49:30.000Z,10.53
2022-10-22T02:51:59.653Z,13.33
2022-10-22T02:54:28.129Z,11.57
2022-10-22T02:56:56.636Z,15.10
2022-10-22T02:59:25.194Z,18.10
2022-10-22T03:01:53.661Z,6.20
2022-10-22T03:04:23.412Z,12.57
2022-10-22T03:06:51.836Z,10.27
2022-10-22T03:09:22.768Z,9.43
2022-10-22T03:11:53.311Z,6.03
2022-10-22T03:14:21.863Z,9.07
2022-10-22T03:16:50.287Z,9.60
2022-10-22T03:19:18.886Z,10.77
2022-10-22T03:21:50.939Z,6.07
2022-10-22T03:24:22.489Z,6.97
2022-10-22T03:26:52.875Z,5.53
2022-10-22T03:29:23.436Z,10.30
2022-10-22T03:31:51.803Z,11.97
2022-10-22T03:34:20.271Z,11.90
2022-10-22T03:36:50.695Z,6.00
2022-10-22T03:39:20.811Z,11.13
2022-10-22T03:41:50.235Z,8.00
2022-10-22T03:44:19.077Z,16.47
2022-10-22T03:46:47.461Z,10.73
2022-10-22T03:49:15.863Z,12.97
2022-10-22T03:51:44.605Z,7.60
2022-10-22T03:54:14.398Z,16.83
2022-10-22T03:56:42.833Z,11.00
2022-10-22T03:59:13.058Z,8.90
2022-10-22T04:01:41.438Z,10.13
2022-10-22T04:04:09.878Z,9.00
2022-10-22T04:06:38.288Z,12.50
2022-10-22T04:09:06.770Z,8.73
2022-10-22T04:11:36.786Z,14.17
2022-10-22T04:14:05.295Z,10.03
2022-10-22T04:16:33.798Z,13.63
2022-10-22T04:19:02.230Z,7.67
2022-10-22T04:21:30.669Z,8.77
2022-10-22T04:23:59.433Z,12.17
2022-10-22T04:26:28.447Z,11.17
2022-10-22T04:28:58.339Z,12.23
2022-10-22T04:31:27.103Z,7.97
2022-10-22T04:33:56.460Z,8.07
2022-10-22T04:36:26.020Z,10.07
2022-10-22T04:38:56.424Z,10.80
2022-10-22T04:41:27.055Z,11.47
2022-10-22T04:43:55.947Z,7.77
2022-10-22T04:46:27.023Z,15.60
2022-10-22T04:48:55.458Z,14.87
2022-10-22T04:51:26.135Z,12.03
2022-10-22T04:53:55.024Z,11.10
2022-10-22T04:56:25.753Z,15.30
2022-10-22T04:58:56.085Z,16.17
2022-10-22T05:01:27.666Z,13.33
2022-10-22T05:03:58.382Z,15.50
2022-10-22T05:06:27.729Z,12.13
2022-10-22T05:08:57.750Z,10.80
2022-10-22T05:11:28.853Z,8.63
2022-10-22T05:13:57.974Z,12.27
2022-10-22T05:16:29.513Z,9.60
2022-10-22T05:18:59.763Z,9.80
2022-10-22T05:21:28.939Z,18.90
2022-10-22T05:24:00.526Z,12.87
2022-10-22T05:26:29.735Z,10.87
2022-10-22T05:28:58.174Z,15.00
2022-10-22T05:31:28.894Z,13.20
2022-10-22T05:33:57.296Z,12.50
2022-10-22T05:36:25.996Z,10.27
2022-10-22T05:38:54.980Z,14.03
2022-10-22T05:41:24.821Z,12.20
2022-10-22T05:43:56.032Z,14.50
2022-10-22T05:46:25.994Z,8.63
2022-10-22T05:48:57.036Z,8.13
2022-10-22T05:51:26.547Z,6.80
2022-10-22T05:53:56.675Z,8.47
2022-10-22T05:56:25.721Z,10.70
2022-10-22T05:58:54.352Z,9.63
2022-10-22T06:01:24.671Z,9.70
2022-10-22T06:03:57.280Z,11.90
2022-10-22T06:06:30.231Z,14.10
2022-10-22T06:09:02.928Z,9.00
2022-10-22T06:11:34.308Z,14.10
2022-10-22T06:14:03.819Z,12.93
2022-10-22T06:16:32.838Z,12.77
2022-10-22T06:19:03.093Z,10.90
2022-10-22T06:21:32.525Z,11.53
2022-10-22T06:24:01.890Z,10.07
2022-10-22T06:26:30.650Z,10.07
2022-10-22T06:28:59.734Z,6.03
2022-10-22T06:31:29.414Z,11.43
2022-10-22T06:33:58.104Z,16.27
2022-10-22T06:36:27.992Z,15.87
2022-10-22T06:38:57.370Z,15.70
2022-10-22T06:41:28.808Z,17.07
2022-10-22T06:43:58.688Z,13.27
2022-10-22T06:46:27.856Z,8.67
2022-10-22T06:48:57.724Z,5.90
2022-10-22T06:51:28.580Z,7.33
2022-10-22T06:53:57.868Z,13.07
2022-10-22T06:56:28.415Z,9.67
2022-10-22T06:58:58.766Z,11.40
2022-10-22T07:01:30.064Z,10.83
2022-10-22T07:03:59.047Z,7.37
2022-10-22T07:06:29.899Z,6.10
2022-10-22T07:09:00.309Z,6.90
2022-10-22T07:11:30.623Z,13.13
2022-10-22T07:14:00.554Z,10.20
2022-10-22T07:16:31.256Z,6.40
2022-10-22T07:19:01.075Z,13.13
2022-10-22T07:21:31.888Z,7.80
2022-10-22T07:24:00.464Z,9.43
2022-10-22T07:26:32.441Z,8.40
2022-10-22T07:29:01.058Z,15.80
2022-10-22T07:31:29.650Z,8.40
2022-10-22T07:33:58.295Z,9.20
2022-10-22T07:36:26.792Z,13.07
2022-10-22T07:38:58.732Z,14.60
2022-10-22T07:41:27.844Z,7.73
2022-10-22T07:43:56.980Z,8.57
2022-10-22T07:46:25.927Z,11.07
2022-10-22T07:48:54.699Z,9.40
2022-10-22T07:51:23.724Z,10.27
2022-10-22T07:53:52.098Z,14.03
2022-10-22T07:56:21.899Z,4.97
2022-10-22T07:58:50.394Z,13.00
2022-10-22T08:01:18.969Z,6.30
2022-10-22T08:03:47.448Z,4.07
2022-10-22T08:06:16.006Z,7.40
2022-10-22T08:08:45.686Z,10.97
2022-10-22T08:11:14.335Z,4.47
2022-10-22T08:13:45.592Z,9.10
2022-10-22T08:16:15.284Z,12.77
2022-10-22T08:18:44.007Z,9.30
2022-10-22T08:21:12.587Z,6.43
2022-10-22T08:23:40.992Z,6.47
2022-10-22T08:26:09.451Z,7.40
2022-10-22T08:28:38.573Z,5.13
2022-10-22T08:31:09.536Z,10.90
2022-10-22T08:33:39.302Z,11.23
2022-10-22T08:36:08.563Z,10.80
2022-10-22T08:38:37.232Z,11.90
2022-10-22T08:41:12.615Z,6.30
2022-10-22T08:44:08.603Z,5.07
2022-10-22T08:46:55.554Z,5.57
2022-10-22T08:49:27.194Z,11.53
2022-10-22T08:51:58.021Z,13.53
2022-10-22T08:54:38.072Z,8.80
2022-10-22T08:57:20.445Z,9.20
2022-10-22T08:59:54.733Z,11.77
2022-10-22T09:02:41.234Z,8.73
2022-10-22T09:05:20.827Z,13.23
2022-10-22T09:07:50.371Z,6.63
2022-10-22T09:10:20.351Z,7.10
2022-10-22T09:12:49.814Z,8.07
2022-10-22T09:15:20.096Z,7.93
2022-10-22T09:18:00.677Z,6.10
2022-10-22T09:20:36.844Z,8.93
2022-10-22T09:23:20.657Z,9.17
2022-10-22T09:25:51.828Z,13.33
2022-10-22T09:28:20.426Z,7.10
2022-10-22T09:30:48.882Z,4.97
2022-10-22T09:33:25.447Z,4.03
2022-10-22T09:35:56.013Z,7.97
2022-10-22T09:38:27.620Z,8.53
2022-10-22T09:40:58.147Z,7.43
2022-10-22T09:43:26.660Z,6.00
2022-10-22T09:45:58.645Z,4.67
2022-10-22T09:48:34.403Z,7.13
2022-10-22T09:51:12.070Z,9.63
2022-10-22T09:53:44.000Z,6.70
2022-10-22T09:56:23.228Z,10.93
2022-10-22T09:58:52.126Z,7.33
2022-10-22T10:01:23.554Z,8.53
2022-10-22T10:03:53.389Z,6.63
2022-10-22T10:06:23.689Z,8.00
2022-10-22T10:08:52.153Z,3.07
2022-10-22T10:11:29.579Z,5.73
2022-10-22T10:14:09.152Z,7.07
2022-10-22T10:16:45.686Z,7.50
2022-10-22T10:19:37.982Z,5.63
2022-10-22T10:22:20.717Z,12.27
2022-10-22T10:25:05.913Z,8.03
2022-10-22T10:27:38.963Z,10.10
2022-10-22T10:30:14.008Z,8.17
2022-10-22T10:33:02.377Z,5.37
2022-10-22T10:35:43.103Z,8.93
2022-10-22T10:38:29.615Z,7.83
2022-10-22T10:41:05.301Z,11.17
2022-10-22T10:43:43.537Z,9.00
2022-10-22T10:46:18.530Z,7.90
2022-10-22T10:48:51.868Z,7.07
2022-10-22T10:51:36.513Z,6.37
2022-10-22T10:54:22.813Z,4.57
2022-10-22T10:56:55.339Z,10.20
2022-10-22T10:59:36.851Z,10.97
2022-10-22T11:02:26.243Z,4.07
2022-10-22T11:05:13.048Z,5.63
2022-10-22T11:07:49.713Z,6.50
2022-10-22T11:10:28.696Z,9.23
2022-10-22T11:13:03.085Z,11.03
2022-10-22T11:15:33.987Z,8.17
2022-10-22T11:18:12.048Z,12.77
2022-10-22T11:20:53.896Z,9.10
2022-10-22T11:23:30.299Z,8.70
2022-10-22T11:26:00.456Z,8.03
2022-10-22T11:28:33.087Z,14.97
2022-10-22T11:31:04.893Z,7.70
2022-10-22T11:33:45.642Z,5.87
2022-10-22T11:36:14.692Z,3.60
2022-10-22T11:38:44.889Z,4.40
2022-10-22T11:41:15.243Z,5.43
2022-10-22T11:43:57.455Z,8.53
2022-10-22T11:46:30.258Z,10.90
2022-10-22T11:49:19.124Z,10.73
2022-10-22T11:51:47.932Z,14.20
2022-10-22T11:54:42.299Z,13.87
2022-10-22T11:57:24.263Z,14.47
2022-10-22T11:59:55.208Z,7.73
2022-10-22T12:02:44.609Z,8.63
2022-10-22T12:05:43.847Z,11.90
2022-10-22T12:08:27.381Z,20.43
2022-10-22T12:11:07.247Z,6.17
2022-10-22T12:14:02.656Z,8.33
2022-10-22T12:16:55.041Z,10.60
2022-10-22T12:19:33.323Z,9.33
2022-10-22T12:22:12.728Z,7.90
2022-10-22T12:24:44.557Z,8.53
2022-10-22T12:27:25.166Z,13.33
2022-10-22T12:29:56.452Z,6.23
2022-10-22T12:32:30.548Z,14.27
2022-10-22T12:34:58.996Z,8.77
2022-10-22T12:37:27.361Z,9.27
2022-10-22T12:39:55.780Z,8.07
2022-10-22T12:42:26.633Z,10.37
2022-10-22T12:44:56.709Z,7.57
2022-10-22T12:47:25.159Z,9.07
2022-10-22T12:49:53.588Z,7.37
2022-10-22T12:52:25.752Z,5.00
2022-10-22T12:54:54.811Z,8.97
2022-10-22T12:57:25.841Z,11.40
2022-10-22T12:59:54.312Z,10.77
2022-10-22T13:02:24.880Z,4.40
2022-10-22T13:05:16.569Z,6.97
2022-10-22T13:07:48.755Z,12.10
2022-10-22T13:10:21.682Z,10.20
2022-10-22T13:12:56.972Z,12.73
2022-10-22T13:15:38.367Z,16.03
2022-10-22T13:18:16.741Z,10.80
2022-10-22T13:20:56.031Z,11.33
2022-10-22T13:23:25.968Z,15.70
2022-10-22T13:26:00.360Z,13.67
2022-10-22T13:28:31.630Z,4.57
2022-10-22T13:31:01.649Z,13.17
2022-10-22T13:33:34.297Z,9.83
2022-10-22T13:36:03.338Z,5.80
2022-10-22T13:38:31.998Z,14.63
2022-10-22T13:41:00.599Z,9.33
2022-10-22T13:43:30.360Z,11.47
2022-10-22T13:46:00.928Z,6.77
2022-10-22T13:48:31.481Z,11.10
2022-10-22T13:50:59.993Z,16.60
2022-10-22T13:53:31.018Z,7.60
2022-10-22T13:55:59.399Z,10.27
2022-10-22T13:58:27.763Z,11.33
2022-10-22T14:00:59.988Z,11.40
2022-10-22T14:03:31.114Z,13.27
2022-10-22T14:05:59.942Z,11.57
2022-10-22T14:08:28.972Z,14.23
2022-10-22T14:10:57.719Z,17.77
2022-10-22T14:13:26.619Z,14.00
2022-10-22T14:15:55.107Z,10.13
2022-10-22T14:18:28.951Z,15.40
2022-10-22T14:20:59.841Z,10.77
2022-10-22T14:23:30.461Z,12.13
2022-10-22T14:25:59.961Z,15.53
2022-10-22T14:28:31.373Z,26.70
2022-10-22T14:31:00.254Z,14.60
2022-10-22T14:33:32.509Z,17.57
2022-10-22T14:36:01.601Z,16.17
2022-10-22T14:38:30.575Z,19.27
2022-10-22T14:41:01.155Z,14.53
2022-10-22T14:43:31.968Z,13.27
2022-10-22T14:46:00.579Z,6.97
2022-10-22T14:48:30.342Z,11.77
2022-10-22T14:50:58.764Z,14.77
2022-10-22T14:53:27.183Z,18.73
2022-10-22T14:55:59.056Z,13.77
2022-10-22T14:58:27.732Z,12.67
2022-10-22T15:00:56.182Z,15.97
2022-10-22T15:03:24.587Z,11.57
2022-10-22T15:05:55.783Z,11.73
2022-10-22T15:08:25.317Z,7.17
2022-10-22T15:11:04.332Z,14.67
2022-10-22T15:13:33.505Z,12.43
2022-10-22T15:16:02.221Z,5.40
2022-10-22T15:18:30.605Z,7.10
2022-10-22T15:21:02.154Z,4.97
2022-10-22T15:23:30.780Z,7.37
2022-10-22T15:25:59.832Z,10.33
2022-10-22T15:28:28.364Z,8.73
2022-10-22T15:30:57.815Z,10.87
2022-10-22T15:33:26.699Z,6.47
2022-10-22T15:35:55.392Z,11.13
2022-10-22T15:41:05.310Z,9.17
2022-10-22T15:43:34.443Z,12.17
2022-10-22T15:46:14.332Z,5.73
2022-10-22T15:48:42.872Z,7.00
2022-10-22T15:51:13.604Z,11.20
2022-10-22T15:53:44.219Z,9.40
2022-10-22T15:56:13.059Z,6.07
2022-10-22T15:58:41.457Z,8.00
2022-10-22T16:01:11.448Z,8.50
2022-10-22T16:03:40.308Z,12.03
2022-10-22T16:06:10.149Z,6.50
2022-10-22T16:08:38.792Z,7.63
2022-10-22T16:11:08.678Z,17.30
2022-10-22T16:13:37.682Z,11.80
2022-10-22T16:16:08.219Z,10.67
2022-10-22T16:18:36.773Z,16.17
2022-10-22T16:21:05.438Z,8.77
2022-10-22T16:23:34.792Z,7.07
2022-10-22T16:26:03.593Z,5.27
2022-10-22T16:31:05.985Z,9.50
2022-10-22T16:33:41.402Z,7.90
2022-10-22T16:36:12.331Z,17.67
2022-10-22T16:38:40.755Z,32.50
2022-10-22T16:41:10.677Z,19.17
2022-10-22T16:43:40.549Z,11.90
2022-10-22T16:46:09.509Z,15.40
2022-10-22T16:48:40.518Z,12.93
2022-10-22T16:51:10.857Z,10.37
2022-10-22T16:53:39.373Z,10.70
2022-10-22T16:56:10.476Z,12.50
2022-10-22T16:58:44.526Z,9.67
2022-10-22T17:01:16.941Z,12.47
2022-10-22T17:03:46.460Z,11.50
2022-10-22T17:06:15.751Z,16.47
2022-10-22T17:08:44.235Z,15.93
2022-10-22T17:11:17.087Z,10.10
2022-10-22T17:13:48.650Z,12.27
2022-10-22T17:16:19.069Z,7.03
2022-10-22T17:18:48.525Z,12.17
2022-10-22T17:21:17.695Z,11.80
2022-10-22T17:23:46.716Z,9.67
2022-10-22T17:26:18.191Z,15.87
2022-10-22T17:28:48.743Z,22.17
2022-10-22T17:31:19.673Z,25.43
2022-10-22T17:33:49.812Z,18.10
2022-10-22T17:36:19.376Z,18.83
2022-10-22T17:38:50.774Z,19.97
2022-10-22T17:41:21.907Z,20.10
2022-10-22T17:43:51.893Z,14.07
2022-10-22T17:46:21.823Z,17.90
2022-10-22T17:48:51.205Z,16.30
2022-10-22T17:51:20.583Z,18.10
2022-10-22T17:53:51.139Z,25.67
2022-10-22T17:56:22.034Z,16.70
2022-10-22T17:58:52.038Z,20.27
2022-10-22T18:01:22.595Z,18.80
2022-10-22T18:03:51.392Z,16.87
2022-10-22T18:06:20.036Z,15.43
2022-10-22T18:08:48.547Z,18.63
2022-10-22T18:11:19.823Z,20.17
2022-10-22T18:13:51.858Z,21.63
2022-10-22T18:16:21.222Z,33.57
2022-10-22T18:18:51.406Z,22.17
2022-10-22T18:21:20.822Z,25.90
2022-10-22T18:23:49.563Z,24.20
2022-10-22T18:26:20.229Z,20.13
2022-10-22T18:28:52.654Z,28.00
2022-10-22T18:31:23.419Z,32.00
2022-10-22T18:36:22.408Z,19.43
2022-10-22T18:38:51.407Z,32.23
2022-10-22T18:41:21.127Z,20.67
2022-10-22T18:43:53.027Z,20.30
2022-10-22T18:46:21.950Z,18.97
2022-10-22T18:48:50.384Z,21.63
2022-10-22T18:51:18.761Z,22.33
2022-10-22T18:53:59.214Z,22.93
2022-10-22T18:56:39.887Z,28.43
2022-10-22T18:59:16.064Z,33.43
2022-10-22T19:01:44.561Z,26.20
2022-10-22T19:04:14.015Z,17.73
2022-10-22T19:06:45.771Z,23.90
2022-10-22T19:09:15.199Z,22.53
2022-10-22T19:11:44.616Z,28.13
2022-10-22T19:14:19.289Z,30.13
2022-10-22T19:16:48.124Z,31.37
2022-10-22T19:19:18.838Z,28.47
2022-10-22T19:21:47.987Z,27.17
2022-10-22T19:24:18.023Z,18.03
2022-10-22T19:26:47.756Z,25.93
2022-10-22T19:29:19.288Z,29.37
2022-10-22T19:31:48.008Z,25.00
2022-10-22T19:34:16.400Z,28.90
2022-10-22T19:36:44.957Z,24.03
2022-10-22T19:39:16.135Z,27.03
2022-10-22T19:41:44.837Z,30.07
2022-10-22T19:44:13.262Z,19.17
2022-10-22T19:46:43.280Z,29.97
2022-10-22T19:49:12.415Z,24.40
2022-10-22T19:51:40.960Z,24.43
2022-10-22T19:54:15.636Z,30.90
2022-10-22T19:56:44.035Z,23.40
2022-10-22T19:59:13.045Z,25.47
2022-10-22T20:01:42.839Z,22.50
2022-10-22T20:04:14.791Z,24.07
2022-10-22T20:06:43.648Z,23.50
2022-10-22T20:09:13.442Z,22.27
2022-10-22T20:11:41.880Z,20.17
2022-10-22T20:14:10.342Z,17.37
2022-10-22T20:16:38.773Z,22.87
2022-10-22T20:19:08.843Z,19.67
2022-10-22T20:21:37.361Z,24.00
2022-10-22T20:24:05.953Z,21.07
2022-10-22T20:26:34.574Z,19.33
2022-10-22T20:29:02.948Z,17.83
2022-10-22T20:31:32.998Z,19.70
2022-10-22T20:34:02.244Z,26.70
2022-10-22T20:36:33.597Z,17.83
2022-10-22T20:39:06.073Z,17.70
2022-10-22T20:41:37.671Z,18.33
2022-10-22T20:44:06.249Z,16.63
2022-10-22T20:46:35.143Z,18.63
2022-10-22T20:49:07.040Z,15.80
2022-10-22T20:51:37.978Z,16.93
2022-10-22T20:54:08.119Z,13.30
2022-10-22T20:56:37.570Z,18.00
2022-10-22T20:59:08.140Z,11.53
2022-10-22T21:01:38.669Z,20.53
2022-10-22T21:04:08.085Z,19.70
2022-10-22T21:06:40.236Z,23.57
2022-10-22T21:09:10.201Z,16.40
2022-10-22T21:11:39.561Z,18.83
2022-10-22T21:14:10.277Z,14.93
2022-10-22T21:16:41.798Z,18.53
2022-10-22T21:19:10.650Z,13.40
2022-10-22T21:21:40.433Z,16.50
2022-10-22T21:24:09.395Z,14.90
2022-10-22T21:26:38.709Z,13.37
2022-10-22T21:29:07.313Z,14.03
2022-10-22T21:31:36.226Z,10.60
2022-10-22T21:34:04.711Z,18.67
2022-10-22T21:36:33.278Z,18.53
2022-10-22T21:39:03.185Z,16.10
2022-10-22T21:41:32.063Z,11.40
2022-10-22T21:44:00.938Z,13.37
2022-10-22T21:46:29.788Z,16.23
2022-10-22T21:49:01.362Z,12.40
2022-10-22T21:51:31.655Z,12.77
2022-10-22T21:54:00.557Z,14.87
2022-10-22T21:56:33.109Z,14.03
2022-10-22T21:59:01.937Z,18.27
2022-10-22T22:01:31.210Z,13.13
2022-10-22T22:04:00.215Z,15.00
2022-10-22T22:06:33.120Z,14.50
2022-10-22T22:09:02.851Z,16.63
2022-10-22T22:11:33.488Z,21.40
2022-10-22T22:14:01.966Z,17.43
2022-10-22T22:16:32.363Z,17.77
2022-10-22T22:21:32.812Z,14.40
2022-10-22T22:24:01.685Z,13.90
2022-10-22T22:26:32.411Z,20.27
2022-10-22T22:29:01.211Z,17.77
2022-10-22T22:31:31.607Z,21.00
2022-10-22T22:34:01.235Z,17.53
2022-10-22T22:36:33.420Z,28.63
2022-10-22T22:39:01.865Z,22.07
2022-10-22T22:41:30.286Z,35.03
2022-10-22T22:44:00.367Z,29.23
2022-10-22T22:46:29.107Z,24.43
2022-10-22T22:48:57.575Z,22.83
2022-10-22T22:51:26.118Z,24.03
2022-10-22T22:53:54.547Z,18.00
2022-10-22T22:56:24.801Z,16.50
2022-10-22T22:58:53.680Z,13.10
2022-10-22T23:01:25.950Z,28.87
2022-10-22T23:03:56.459Z,23.33
2022-10-22T23:06:25.665Z,20.77
2022-10-22T23:08:55.332Z,26.80
2022-10-22T23:11:25.500Z,18.30
2022-10-22T23:13:55.209Z,16.60
2022-10-22T23:16:26.645Z,16.07
2022-10-22T23:18:56.263Z,16.80
2022-10-22T23:21:27.612Z,16.33
2022-10-22T23:23:58.307Z,13.90
2022-10-22T23:26:29.173Z,17.03
2022-10-22T23:29:01.568Z,12.77
2022-10-22T23:31:31.435Z,12.50
2022-10-22T23:34:00.029Z,17.60
2022-10-22T23:36:28.727Z,12.50
2022-10-22T23:38:57.257Z,12.70
2022-10-22T23:41:25.674Z,11.33
2022-10-22T23:43:54.106Z,9.93
2022-10-22T23:46:22.472Z,12.00
2022-10-22T23:48:53.634Z,15.47
2022-10-22T23:51:22.936Z,11.77
2022-10-22T23:53:56.628Z,13.07
2022-10-22T23:56:25.980Z,15.70
2022-10-22T23:58:55.452Z,9.10
